Time;durP1;ratioP1;P1;durP2;ratioP2;P2;SDS_P1;SDS_P2;PMS_P1;PMS_P2;Temp;Humidity;BMP_temperature;BMP_pressure;BME280_temperature;BME280_humidity;BME280_pressure;Samples;Min_cycle;Max_cycle;Signal;HPM_P1;HPM_P2
2022/03/18 00:06:01;;;;;;;14.60;7.32;;;4.70;99.90;;;;;;6749734;88;20526;-81
2022/03/18 00:16:01;;;;;;;16.58;7.00;;;4.50;99.90;;;;;;6751120;88;20189;-78
2022/03/18 00:26:02;;;;;;;15.85;7.15;;;4.30;99.90;;;;;;6763381;88;20219;-80
2022/03/18 00:36:03;;;;;;;15.40;5.95;;;4.50;99.90;;;;;;6758811;88;20212;-80
2022/03/18 00:46:04;;;;;;;14.13;7.18;;;4.10;99.90;;;;;;6755890;88;20326;-79
2022/03/18 00:56:05;;;;;;;16.00;7.10;;;4.00;99.90;;;;;;6748759;87;20188;-79
2022/03/18 01:06:05;;;;;;;11.82;6.53;;;3.80;99.90;;;;;;6766418;88;20195;-80
2022/03/18 01:16:06;;;;;;;18.75;7.35;;;3.70;99.90;;;;;;6767525;88;20725;-79
2022/03/18 01:26:06;;;;;;;16.08;6.90;;;3.60;99.90;;;;;;6767891;88;20195;-80
2022/03/18 01:36:07;;;;;;;15.93;7.03;;;3.80;99.90;;;;;;6769963;88;20316;-79
2022/03/18 01:46:08;;;;;;;14.45;6.62;;;3.80;99.90;;;;;;6769151;88;20668;-80
2022/03/18 01:56:09;;;;;;;14.70;6.78;;;3.60;99.90;;;;;;6768066;88;20208;-79
2022/03/18 02:06:10;;;;;;;15.95;7.12;;;3.50;99.90;;;;;;6769070;88;20219;-80
2022/03/18 02:16:11;;;;;;;15.10;6.90;;;3.20;99.90;;;;;;6769759;88;20237;-80
2022/03/18 02:26:15;;;;;;;16.65;7.25;;;3.30;99.90;;;;;;6765204;88;20273;-80
2022/03/18 02:36:16;;;;;;;14.48;6.97;;;3.10;99.90;;;;;;6767784;88;20595;-80
2022/03/18 02:46:16;;;;;;;15.73;7.23;;;2.90;99.90;;;;;;6746699;77;20205;-75
2022/03/18 02:56:17;;;;;;;16.35;7.25;;;2.80;99.90;;;;;;6714170;88;20727;-75
2022/03/18 03:16:37;;;;;;;15.65;7.07;;;2.80;99.90;;;;;;6693589;88;20174;-75
2022/03/18 03:26:37;;;;;;;14.43;7.53;;;2.70;99.90;;;;;;6709068;88;20204;-75
2022/03/18 03:36:38;;;;;;;16.52;7.28;;;2.50;99.90;;;;;;6696700;88;20190;-75
2022/03/18 03:46:38;;;;;;;14.70;7.18;;;2.40;99.90;;;;;;6696011;88;20222;-75
2022/03/18 03:56:39;;;;;;;16.92;7.62;;;2.40;99.90;;;;;;6705581;88;20352;-75
2022/03/18 04:06:39;;;;;;;16.65;7.65;;;2.60;99.90;;;;;;6703408;88;20327;-75
2022/03/18 04:16:40;;;;;;;14.82;7.47;;;2.30;99.90;;;;;;6709185;88;20194;-75
2022/03/18 04:26:41;;;;;;;16.02;8.32;;;2.20;99.90;;;;;;6710759;88;20643;-75
2022/03/18 04:36:41;;;;;;;18.70;8.95;;;2.20;99.90;;;;;;6709684;88;20278;-75
2022/03/18 04:46:43;;;;;;;15.90;8.85;;;2.00;99.90;;;;;;6706934;88;20264;-75
2022/03/18 05:07:04;;;;;;;17.15;8.90;;;2.10;99.90;;;;;;6715969;88;20174;-75
2022/03/18 05:17:07;;;;;;;16.52;8.50;;;2.10;99.90;;;;;;6723350;88;20617;-74
2022/03/18 05:27:08;;;;;;;21.15;9.88;;;1.80;99.90;;;;;;6711009;88;20175;-74
2022/03/18 05:37:09;;;;;;;19.92;9.07;;;1.80;99.90;;;;;;6711776;88;20726;-75
2022/03/18 05:47:10;;;;;;;20.70;9.07;;;1.50;99.90;;;;;;6704662;88;20320;-74
2022/03/18 05:57:12;;;;;;;16.48;9.27;;;1.50;99.90;;;;;;6700485;88;20182;-75
2022/03/18 06:07:12;;;;;;;18.65;9.07;;;1.80;99.90;;;;;;6710322;88;20282;-75
2022/03/18 06:17:13;;;;;;;19.77;9.43;;;1.70;99.90;;;;;;6710659;88;20189;-75
2022/03/18 06:27:13;;;;;;;18.25;9.68;;;1.70;99.90;;;;;;6722175;88;20225;-74
2022/03/18 06:37:14;;;;;;;18.10;9.35;;;1.60;99.90;;;;;;6715164;88;20675;-75
2022/03/18 06:47:14;;;;;;;24.70;10.27;;;1.50;99.90;;;;;;6718628;88;20311;-75
2022/03/18 06:57:15;;;;;;;25.30;11.07;;;1.70;99.90;;;;;;6741824;88;20690;-75
2022/03/18 07:07:15;;;;;;;25.35;10.82;;;2.00;99.90;;;;;;6730589;88;20212;-76
2022/03/18 07:27:35;;;;;;;19.75;9.90;;;3.30;99.90;;;;;;6728215;88;20182;-76
2022/03/18 07:37:36;;;;;;;21.45;10.18;;;4.20;99.90;;;;;;6727750;88;20323;-76
2022/03/18 07:47:37;;;;;;;17.83;9.40;;;5.20;99.90;;;;;;6723262;88;20741;-76
2022/03/18 07:57:38;;;;;;;20.40;9.30;;;6.00;99.90;;;;;;6731071;88;20632;-75
2022/03/18 08:07:39;;;;;;;17.50;8.70;;;6.90;99.90;;;;;;6735402;88;20198;-77
2022/03/18 08:17:41;;;;;;;17.62;8.32;;;7.40;99.90;;;;;;6739267;88;20189;-75
2022/03/18 08:27:42;;;;;;;16.10;7.53;;;8.20;99.90;;;;;;6729229;88;20251;-75
2022/03/18 08:37:58;;;;;;;15.98;6.95;;;8.80;99.90;;;;;;6715383;88;20347;-74
2022/03/18 08:47:59;;;;;;;17.00;7.47;;;10.10;99.90;;;;;;6721958;88;20222;-75
2022/03/18 08:58:00;;;;;;;13.25;6.47;;;10.70;99.90;;;;;;6717007;88;20666;-77
2022/03/18 09:08:01;;;;;;;10.55;5.18;;;11.50;99.90;;;;;;6715600;88;20426;-76
2022/03/18 09:18:01;;;;;;;14.70;6.10;;;12.40;99.90;;;;;;6717324;88;20233;-77
2022/03/18 09:28:03;;;;;;;12.88;6.05;;;13.00;99.00;;;;;;6716086;88;20222;-75
2022/03/18 09:38:04;;;;;;;10.23;5.47;;;12.30;99.90;;;;;;6730464;88;20325;-76
2022/03/18 09:48:07;;;;;;;13.65;6.10;;;13.70;98.80;;;;;;6727535;88;20227;-76
2022/03/18 09:58:07;;;;;;;12.65;5.62;;;14.80;96.10;;;;;;6718754;88;20225;-78
2022/03/18 10:08:09;;;;;;;9.55;4.82;;;15.30;95.40;;;;;;6722070;88;20281;-78
2022/03/18 10:18:11;;;;;;;8.38;4.70;;;15.20;94.10;;;;;;6726369;88;20327;-77
2022/03/18 10:28:12;;;;;;;7.37;4.22;;;15.30;93.20;;;;;;6731869;88;20271;-78
2022/03/18 10:38:12;;;;;;;7.97;4.00;;;16.10;92.30;;;;;;6717265;88;20315;-77
2022/03/18 10:48:15;;;;;;;10.43;4.47;;;16.50;88.70;;;;;;6722195;88;20178;-76
2022/03/18 10:58:19;;;;;;;7.15;4.00;;;17.40;87.20;;;;;;6725617;88;20187;-76
2022/03/18 11:08:22;;;;;;;7.32;3.75;;;17.70;87.10;;;;;;6722042;88;20691;-76
2022/03/18 11:18:28;;;;;;;5.32;3.20;;;18.30;79.60;;;;;;6722270;88;20201;-77
2022/03/18 11:28:29;;;;;;;7.18;3.37;;;19.10;80.40;;;;;;6719560;88;20222;-76
2022/03/18 11:38:55;;;;;;;6.05;3.00;;;18.70;76.90;;;;;;6715792;88;20181;-76
2022/03/18 11:49:05;;;;;;;5.37;2.50;;;20.20;72.70;;;;;;6708166;88;20220;-76
2022/03/18 11:59:24;;;;;;;5.47;2.80;;;20.20;69.40;;;;;;6703666;88;20256;-75
2022/03/18 12:09:24;;;;;;;6.68;2.55;;;21.20;66.20;;;;;;6698693;88;20203;-76
2022/03/18 12:19:25;;;;;;;5.17;2.43;;;20.80;64.80;;;;;;6701021;88;20227;-76
2022/03/18 12:29:28;;;;;;;5.10;1.98;;;21.80;62.30;;;;;;6702581;88;20500;-76
2022/03/18 12:39:29;;;;;;;4.28;1.70;;;21.70;58.00;;;;;;6707133;88;20235;-76
2022/03/18 12:49:35;;;;;;;3.60;1.50;;;22.20;59.00;;;;;;6710975;88;20181;-76
2022/03/18 12:59:39;;;;;;;3.53;1.37;;;21.90;55.10;;;;;;6722931;88;20625;-77
2022/03/18 13:09:47;;;;;;;;;;;22.60;55.80;;;;;;6721053;88;20222;-76
2022/03/18 13:19:50;;;;;;;1.98;0.50;;;22.90;52.50;;;;;;6720923;88;20118;-76
2022/03/18 13:40:15;;;;;;;2.00;0.55;;;22.50;50.90;;;;;;6703896;88;20185;-77
2022/03/18 13:50:16;;;;;;;1.33;0.50;;;23.40;50.80;;;;;;6721090;88;20186;-76
2022/03/18 14:00:32;;;;;;;1.30;0.40;;;23.10;47.50;;;;;;6720627;88;20227;-76
2022/03/18 14:10:40;;;;;;;1.75;0.40;;;22.40;47.70;;;;;;6715941;88;20203;-76
2022/03/18 14:20:47;;;;;;;1.20;0.60;;;23.10;47.90;;;;;;6713431;88;20232;-78
2022/03/18 14:30:48;;;;;;;2.70;0.50;;;22.50;46.40;;;;;;6724280;88;20364;-76
2022/03/18 14:40:50;;;;;;;0.70;0.30;;;22.50;47.40;;;;;;6719653;88;20188;-77
2022/03/18 14:50:51;;;;;;;2.17;0.45;;;22.20;45.20;;;;;;6734758;88;20216;-77
2022/03/18 15:00:52;;;;;;;1.77;0.53;;;21.40;47.00;;;;;;6729483;88;20211;-74
2022/03/18 15:10:53;;;;;;;1.12;0.40;;;21.50;46.00;;;;;;6736780;88;20609;-74
2022/03/18 15:20:53;;;;;;;1.45;0.40;;;20.80;45.60;;;;;;6734371;88;20249;-75
2022/03/18 15:30:56;;;;;;;1.00;0.40;;;20.50;45.60;;;;;;6746739;88;20211;-75
2022/03/18 15:40:57;;;;;;;1.67;0.60;;;20.10;46.70;;;;;;6749844;88;20263;-75
2022/03/18 15:51:00;;;;;;;2.25;0.60;;;19.20;45.80;;;;;;6744613;88;20268;-77
2022/03/18 16:01:00;;;;;;;2.08;0.50;;;19.30;46.20;;;;;;6739063;88;20189;-75
2022/03/18 16:11:01;;;;;;;2.13;0.40;;;18.60;46.50;;;;;;6745880;88;20196;-75
2022/03/18 16:21:06;;;;;;;1.67;0.47;;;18.40;46.20;;;;;;6736242;88;20494;-74
2022/03/18 16:31:06;;;;;;;1.70;0.50;;;18.20;47.20;;;;;;6735627;88;20190;-76
2022/03/18 16:41:07;;;;;;;2.27;0.43;;;17.70;47.60;;;;;;6730128;88;20239;-74
2022/03/18 16:51:09;;;;;;;1.20;0.35;;;17.20;49.90;;;;;;6727523;88;20242;-79
2022/03/18 17:11:11;;;;;;;2.83;0.70;;;15.70;52.40;;;;;;6718054;88;20193;-76
2022/03/18 17:21:12;;;;;;;1.85;0.50;;;15.10;53.20;;;;;;6724996;88;20785;-76
2022/03/18 17:31:14;;;;;;;1.90;0.50;;;14.60;53.70;;;;;;6723667;88;20402;-75
2022/03/18 17:41:18;;;;;;;2.33;0.93;;;14.20;55.20;;;;;;6714322;88;20208;-75
2022/03/18 17:51:20;;;;;;;3.42;1.25;;;13.80;60.30;;;;;;6712536;88;20248;-75
2022/03/18 18:01:20;;;;;;;4.18;1.60;;;13.30;65.90;;;;;;6712691;88;20211;-76
2022/03/18 18:11:21;;;;;;;3.83;1.30;;;12.90;69.10;;;;;;6720185;88;20258;-75
2022/03/18 18:31:40;;;;;;;4.07;1.40;;;12.10;70.90;;;;;;6736940;88;20238;-76
2022/03/18 18:41:43;;;;;;;6.20;1.90;;;11.80;71.50;;;;;;6742417;88;20199;-74
2022/03/18 18:51:51;;;;;;;5.12;1.62;;;11.60;72.10;;;;;;6722794;88;20188;-77
2022/03/18 19:01:53;;;;;;;4.82;1.98;;;11.00;72.70;;;;;;6719311;88;20198;-75
2022/03/18 19:11:53;;;;;;;6.65;1.80;;;10.60;74.20;;;;;;6719573;88;20177;-75
2022/03/18 19:21:54;;;;;;;5.15;2.10;;;10.50;75.00;;;;;;6720246;88;20648;-78
2022/03/18 19:42:13;;;;;;;6.07;1.75;;;9.90;78.10;;;;;;6715483;88;20179;-75
2022/03/18 19:52:15;;;;;;;6.10;2.17;;;9.60;78.80;;;;;;6722400;88;20252;-76
2022/03/18 20:02:16;;;;;;;5.97;2.00;;;9.50;80.80;;;;;;6723055;88;20535;-75
2022/03/18 20:12:17;;;;;;;8.07;2.53;;;9.10;81.50;;;;;;6724032;88;20186;-76
2022/03/18 20:22:18;;;;;;;4.90;2.03;;;9.00;83.00;;;;;;6725593;88;20793;-77
2022/03/18 20:32:19;;;;;;;5.62;2.03;;;8.80;83.50;;;;;;6721280;88;20232;-76
2022/03/18 20:42:21;;;;;;;4.03;1.90;;;8.80;85.40;;;;;;6726431;88;20247;-76
2022/03/18 20:52:22;;;;;;;6.22;2.30;;;8.70;86.50;;;;;;6740723;88;20246;-75
2022/03/18 21:02:22;;;;;;;8.05;2.40;;;8.40;90.60;;;;;;6741582;88;20195;-75
2022/03/18 21:12:23;;;;;;;5.28;2.67;;;8.20;93.80;;;;;;6738415;88;20219;-75
2022/03/18 21:22:25;;;;;;;7.65;3.50;;;7.90;94.80;;;;;;6737034;88;20253;-76
2022/03/18 21:32:26;;;;;;;6.97;3.00;;;7.70;96.60;;;;;;6736949;88;20204;-75
2022/03/18 21:42:27;;;;;;;8.43;2.72;;;7.60;98.80;;;;;;6740950;88;20257;-75
2022/03/18 21:52:28;;;;;;;4.85;2.40;;;7.50;99.90;;;;;;6747225;88;20203;-76
2022/03/18 22:02:29;;;;;;;6.43;2.47;;;7.30;98.90;;;;;;6734632;88;20249;-76
2022/03/18 22:12:30;;;;;;;4.47;2.30;;;7.20;98.70;;;;;;6724088;88;20221;-75
2022/03/18 22:22:39;;;;;;;6.03;2.47;;;7.00;99.90;;;;;;6745955;88;20291;-75
2022/03/18 22:32:41;;;;;;;7.68;2.83;;;6.80;99.90;;;;;;6739550;88;20208;-75
2022/03/18 22:42:44;;;;;;;9.65;4.90;;;6.70;99.90;;;;;;6730608;88;20215;-75
2022/03/18 22:52:44;;;;;;;7.28;2.97;;;6.90;99.90;;;;;;6727861;88;20732;-75
2022/03/18 23:02:45;;;;;;;6.20;2.40;;;6.90;99.90;;;;;;6720463;88;20197;-75
2022/03/18 23:12:46;;;;;;;6.05;2.60;;;6.70;99.90;;;;;;6721632;88;20215;-74
2022/03/18 23:22:46;;;;;;;7.03;2.72;;;6.50;99.90;;;;;;6726332;88;20190;-74
2022/03/18 23:32:47;;;;;;;9.48;2.80;;;6.30;99.90;;;;;;6725256;88;20189;-73
2022/03/18 23:42:47;;;;;;;7.85;2.58;;;6.10;99.90;;;;;;6723064;88;20229;-74
2022/03/18 23:52:48;;;;;;;5.97;2.30;;;6.10;99.90;;;;;;6744140;88;20235;-75
